createdAt,value
2023-02-23T00:01:56.432Z,100760.22
2023-02-23T00:04:42.159Z,100757.47
2023-02-23T00:07:10.425Z,100756.72
2023-02-23T00:09:37.950Z,100749.53
2023-02-23T00:12:09.788Z,100756.56
2023-02-23T00:14:38.119Z,100754.59
2023-02-23T00:17:14.146Z,100752.81
2023-02-23T00:19:43.813Z,100752.81
2023-02-23T00:22:12.794Z,100745.09
2023-02-23T00:24:42.527Z,100747.66
2023-02-23T00:27:12.924Z,100739.53
2023-02-23T00:29:40.610Z,100742.13
2023-02-23T00:32:08.288Z,100747.38
2023-02-23T00:34:36.907Z,100733.38
2023-02-23T00:37:04.678Z,100743.84
2023-02-23T00:39:32.147Z,100739.41
2023-02-23T00:42:03.111Z,100741.94
2023-02-23T00:44:32.288Z,100727.53
2023-02-23T00:47:00.727Z,100733.13
2023-02-23T00:49:28.182Z,100727.88
2023-02-23T00:51:55.568Z,100733.91
2023-02-23T00:54:23.151Z,100731.28
2023-02-23T00:56:51.548Z,100722.41
2023-02-23T00:59:19.727Z,100731.25
2023-02-23T01:01:48.047Z,100728.88
2023-02-23T01:04:16.716Z,100705.38
2023-02-23T01:06:46.311Z,100711.47
2023-02-23T01:09:16.967Z,100720.78
2023-02-23T01:11:47.000Z,100715.53
2023-02-23T01:14:15.603Z,100716.41
2023-02-23T01:16:42.951Z,100718.25
2023-02-23T01:19:11.141Z,100708.78
2023-02-23T01:21:42.238Z,100717.63
2023-02-23T01:24:10.605Z,100714.19
2023-02-23T01:26:41.192Z,100721.25
2023-02-23T01:29:12.129Z,100717.25
2023-02-23T01:31:42.842Z,100705.75
2023-02-23T01:34:13.526Z,100716.31
2023-02-23T01:36:42.976Z,100702.75
2023-02-23T01:39:15.881Z,100705.53
2023-02-23T01:41:43.770Z,100704.69
2023-02-23T01:44:14.001Z,100693.19
2023-02-23T01:46:45.284Z,100692.19
2023-02-23T01:49:20.277Z,100694.63
2023-02-23T01:51:57.725Z,100695.50
2023-02-23T01:54:31.086Z,100685.00
2023-02-23T01:57:01.340Z,100691.88
2023-02-23T01:59:39.061Z,100684.03
2023-02-23T02:02:07.671Z,100680.50
2023-02-23T02:04:43.896Z,100689.09
2023-02-23T02:07:14.703Z,100675.88
2023-02-23T02:10:03.445Z,100681.00
2023-02-23T02:12:31.630Z,100675.66
2023-02-23T02:15:00.588Z,100682.75
2023-02-23T02:17:42.998Z,100670.41
2023-02-23T02:20:37.431Z,100672.28
2023-02-23T02:23:23.273Z,100676.69
2023-02-23T02:25:56.706Z,100667.03
2023-02-23T02:28:36.997Z,100668.91
2023-02-23T02:31:31.118Z,100666.38
2023-02-23T02:34:20.087Z,100660.19
2023-02-23T02:37:07.314Z,100661.94
2023-02-23T02:40:14.066Z,100659.25
2023-02-23T02:43:21.266Z,100660.63
2023-02-23T02:46:09.677Z,100665.81
2023-02-23T02:48:49.086Z,100665.72
2023-02-23T02:51:29.879Z,100660.34
2023-02-23T02:54:24.106Z,100644.72
2023-02-23T02:56:57.724Z,100659.78
2023-02-23T02:59:46.239Z,100662.34
2023-02-23T03:02:39.440Z,100657.78
2023-02-23T03:05:33.489Z,100649.81
2023-02-23T03:08:41.007Z,100658.78
2023-02-23T03:11:30.169Z,100648.09
2023-02-23T03:14:50.725Z,100656.81
2023-02-23T03:18:06.258Z,100648.94
2023-02-23T03:20:52.136Z,100663.06
2023-02-23T03:23:53.729Z,100655.97
2023-02-23T03:27:06.686Z,100658.75
2023-02-23T03:30:02.923Z,100663.28
2023-02-23T03:32:52.970Z,100655.25
2023-02-23T03:36:03.322Z,100655.28
2023-02-23T03:39:01.501Z,100653.50
2023-02-23T03:41:49.053Z,100649.81
2023-02-23T03:44:55.788Z,100660.34
2023-02-23T03:47:46.236Z,100654.03
2023-02-23T03:50:49.312Z,100656.59
2023-02-23T03:53:43.349Z,100656.78
2023-02-23T03:56:32.365Z,100657.91
2023-02-23T03:59:21.483Z,100668.34
2023-02-23T04:02:10.248Z,100674.63
2023-02-23T04:04:59.137Z,100660.78
2023-02-23T04:07:45.661Z,100667.09
2023-02-23T04:10:31.616Z,100667.94
2023-02-23T04:13:16.663Z,100656.47
2023-02-23T04:15:57.386Z,100669.50
2023-02-23T04:18:34.209Z,100668.69
2023-02-23T04:21:02.572Z,100669.50
2023-02-23T04:23:30.313Z,100675.72
2023-02-23T04:25:57.875Z,100669.59
2023-02-23T04:28:27.388Z,100665.09
2023-02-23T04:30:54.880Z,100664.28
2023-02-23T04:33:24.085Z,100676.66
2023-02-23T04:35:55.039Z,100672.47
2023-02-23T04:38:23.308Z,100677.63
2023-02-23T04:40:50.918Z,100669.63
2023-02-23T04:43:18.449Z,100673.97
2023-02-23T04:45:46.066Z,100673.97
2023-02-23T04:48:13.493Z,100678.34
2023-02-23T04:50:40.888Z,100668.59
2023-02-23T04:53:08.425Z,100665.94
2023-02-23T04:55:35.871Z,100670.38
2023-02-23T04:58:03.693Z,100673.69
2023-02-23T05:00:31.597Z,100679.31
2023-02-23T05:02:59.010Z,100674.00
2023-02-23T05:05:26.418Z,100673.81
2023-02-23T05:07:55.116Z,100681.88
2023-02-23T05:10:22.627Z,100679.94
2023-02-23T05:12:50.240Z,100675.66
2023-02-23T05:15:17.664Z,100672.97
2023-02-23T05:17:45.040Z,100675.53
2023-02-23T05:20:13.804Z,100662.19
2023-02-23T05:22:41.539Z,100665.72
2023-02-23T05:25:10.313Z,100659.63
2023-02-23T05:27:38.249Z,100673.03
2023-02-23T05:30:07.893Z,100666.16
2023-02-23T05:32:35.513Z,100667.09
2023-02-23T05:35:03.653Z,100668.75
2023-02-23T05:37:31.210Z,100669.47
2023-02-23T05:39:58.608Z,100662.44
2023-02-23T05:42:26.181Z,100673.81
2023-02-23T05:44:53.526Z,100672.09
2023-02-23T05:47:20.932Z,100672.03
2023-02-23T05:49:48.358Z,100675.56
2023-02-23T05:52:15.836Z,100669.47
2023-02-23T05:54:43.448Z,100674.69
2023-02-23T05:57:10.770Z,100672.03
2023-02-23T05:59:38.980Z,100668.34
2023-02-23T06:02:06.445Z,100669.16
2023-02-23T06:04:34.456Z,100673.69
2023-02-23T06:07:01.898Z,100672.78
2023-02-23T06:09:29.228Z,100682.53
2023-02-23T06:11:57.402Z,100678.09
2023-02-23T06:14:24.684Z,100676.44
2023-02-23T06:16:52.037Z,100686.34
2023-02-23T06:19:19.494Z,100689.03
2023-02-23T06:21:46.772Z,100693.41
2023-02-23T06:24:14.190Z,100695.19
2023-02-23T06:26:44.362Z,100681.88
2023-02-23T06:29:12.868Z,100688.94
2023-02-23T06:31:40.262Z,100697.88
2023-02-23T06:34:07.691Z,100695.22
2023-02-23T06:36:35.380Z,100708.47
2023-02-23T06:39:03.782Z,100708.41
2023-02-23T06:41:32.812Z,100712.88
2023-02-23T06:44:00.107Z,100711.16
2023-02-23T06:46:27.990Z,100713.84
2023-02-23T06:48:56.840Z,100712.09
2023-02-23T06:51:24.181Z,100710.28
2023-02-23T06:53:53.423Z,100717.50
2023-02-23T06:56:21.192Z,100729.06
2023-02-23T06:58:48.883Z,100726.94
2023-02-23T07:01:16.946Z,100730.28
2023-02-23T07:03:44.653Z,100725.97
2023-02-23T07:06:12.162Z,100726.91
2023-02-23T07:08:39.485Z,100729.56
2023-02-23T07:11:13.496Z,100730.47
2023-02-23T07:13:41.442Z,100733.00
2023-02-23T07:16:09.604Z,100731.97
2023-02-23T07:18:37.225Z,100741.06
2023-02-23T07:21:04.875Z,100739.94
2023-02-23T07:23:32.243Z,100748.72
2023-02-23T07:26:00.942Z,100745.09
2023-02-23T07:28:28.894Z,100751.25
2023-02-23T07:30:57.545Z,100743.16
2023-02-23T07:33:25.934Z,100748.72
2023-02-23T07:35:53.272Z,100751.41
2023-02-23T07:38:20.634Z,100753.91
2023-02-23T07:40:50.776Z,100753.84
2023-02-23T07:43:20.732Z,100752.72
2023-02-23T07:45:48.833Z,100754.56
2023-02-23T07:48:16.120Z,100755.38
2023-02-23T07:50:43.625Z,100759.94
2023-02-23T07:53:11.480Z,100759.84
2023-02-23T07:55:40.262Z,100753.47
2023-02-23T07:58:08.422Z,100744.63
2023-02-23T08:00:38.939Z,100761.97
2023-02-23T08:03:07.356Z,100759.03
2023-02-23T08:05:35.747Z,100759.84
2023-02-23T08:08:03.185Z,100761.59
2023-02-23T08:10:30.973Z,100751.81
2023-02-23T08:13:00.124Z,100766.91
2023-02-23T08:15:27.491Z,100760.72
2023-02-23T08:17:54.865Z,100764.16
2023-02-23T08:20:22.303Z,100761.31
2023-02-23T08:22:56.845Z,100758.50
2023-02-23T08:25:24.779Z,100769.66
2023-02-23T08:27:52.793Z,100751.91
2023-02-23T08:30:24.587Z,100755.31
2023-02-23T08:32:52.116Z,100753.47
2023-02-23T08:35:20.294Z,100760.34
2023-02-23T08:37:47.802Z,100763.78
2023-02-23T08:40:19.589Z,100765.22
2023-02-23T08:42:49.148Z,100766.13
2023-02-23T08:45:16.538Z,100767.00
2023-02-23T08:47:43.856Z,100774.22
2023-02-23T08:50:12.107Z,100775.94
2023-02-23T08:52:40.773Z,100769.38
2023-02-23T08:55:18.072Z,100765.09
2023-02-23T08:57:45.416Z,100765.94
2023-02-23T09:00:16.909Z,100771.81
2023-02-23T09:02:47.228Z,100776.13
2023-02-23T09:05:37.747Z,100772.69
2023-02-23T09:08:18.121Z,100790.19
2023-02-23T09:10:45.790Z,100776.72
2023-02-23T09:13:13.837Z,100780.06
2023-02-23T09:15:42.179Z,100776.31
2023-02-23T09:18:14.875Z,100775.38
2023-02-23T09:20:43.352Z,100775.28
2023-02-23T09:23:12.366Z,100783.16
2023-02-23T09:25:43.228Z,100775.13
2023-02-23T09:28:18.195Z,100780.22
2023-02-23T09:30:46.793Z,100781.84
2023-02-23T09:33:14.385Z,100787.31
2023-02-23T09:35:41.775Z,100787.41
2023-02-23T09:38:09.666Z,100797.28
2023-02-23T09:40:47.365Z,100791.94
2023-02-23T09:43:24.295Z,100790.91
2023-02-23T09:45:56.101Z,100791.72
2023-02-23T09:48:27.675Z,100787.19
2023-02-23T09:50:56.538Z,100786.28
2023-02-23T09:53:40.638Z,100795.19
2023-02-23T09:56:21.965Z,100785.41
2023-02-23T09:58:50.404Z,100780.13
2023-02-23T10:01:32.966Z,100794.00
2023-02-23T10:04:20.388Z,100793.00
2023-02-23T10:07:12.946Z,100792.78
2023-02-23T10:10:02.845Z,100788.44
2023-02-23T10:12:50.725Z,100787.50
2023-02-23T10:15:28.968Z,100785.75
2023-02-23T10:18:15.116Z,100800.72
2023-02-23T10:20:50.995Z,100798.84
2023-02-23T10:23:32.021Z,100799.25
2023-02-23T10:26:02.320Z,100795.03
2023-02-23T10:28:34.413Z,100798.16
2023-02-23T10:31:07.280Z,100806.81
2023-02-23T10:33:41.992Z,100794.75
2023-02-23T10:36:19.294Z,100799.16
2023-02-23T10:38:47.211Z,100801.97
2023-02-23T10:41:15.129Z,100787.59
2023-02-23T10:43:42.609Z,100797.00
2023-02-23T10:46:21.296Z,100785.44
2023-02-23T10:48:52.788Z,100797.75
2023-02-23T10:51:25.353Z,100801.53
2023-02-23T10:53:53.847Z,100796.06
2023-02-23T10:56:23.367Z,100782.94
2023-02-23T10:58:56.529Z,100791.31
2023-02-23T11:02:00.420Z,100798.81
2023-02-23T11:04:34.978Z,100799.72
2023-02-23T11:07:23.185Z,100787.19
2023-02-23T11:09:51.703Z,100791.81
2023-02-23T11:12:29.719Z,100790.59
2023-02-23T11:14:58.596Z,100793.28
2023-02-23T11:17:35.231Z,100782.66
2023-02-23T11:20:19.221Z,100780.72
2023-02-23T11:22:47.107Z,100772.72
2023-02-23T11:25:22.035Z,100781.34
2023-02-23T11:27:51.698Z,100766.25
2023-02-23T11:30:24.570Z,100770.47
2023-02-23T11:32:56.398Z,100766.50
2023-02-23T11:35:23.670Z,100770.84
2023-02-23T11:37:50.951Z,100768.56
2023-02-23T11:40:34.838Z,100767.25
2023-02-23T11:43:05.169Z,100762.09
2023-02-23T11:45:39.177Z,100760.28
2023-02-23T11:48:06.925Z,100754.94
2023-02-23T11:50:36.258Z,100752.97
2023-02-23T11:53:14.640Z,100757.63
2023-02-23T11:55:55.784Z,100755.44
2023-02-23T11:58:35.962Z,100757.13
2023-02-23T12:01:12.503Z,100749.16
2023-02-23T12:03:50.024Z,100762.09
2023-02-23T12:06:41.162Z,100758.38
2023-02-23T12:09:26.717Z,100745.75
2023-02-23T12:12:18.353Z,100746.28
2023-02-23T12:14:55.844Z,100740.34
2023-02-23T12:17:29.556Z,100740.06
2023-02-23T12:20:29.620Z,100742.09
2023-02-23T12:23:07.878Z,100737.00
2023-02-23T12:25:43.139Z,100742.97
2023-02-23T12:28:19.620Z,100742.09
2023-02-23T12:31:01.978Z,100736.00
2023-02-23T12:33:39.573Z,100729.19
2023-02-23T12:36:31.841Z,100727.66
2023-02-23T12:39:27.394Z,100725.91
2023-02-23T12:42:07.499Z,100717.97
2023-02-23T12:44:49.411Z,100723.81
2023-02-23T12:47:33.924Z,100726.47
2023-02-23T12:50:19.912Z,100720.09
2023-02-23T12:52:53.787Z,100718.53
2023-02-23T12:55:38.409Z,100715.19
2023-02-23T12:58:13.044Z,100707.91
2023-02-23T13:01:12.737Z,100714.50
2023-02-23T13:04:07.510Z,100709.06
2023-02-23T13:07:05.234Z,100715.69
2023-02-23T13:09:49.298Z,100702.78
2023-02-23T13:12:50.414Z,100709.50
2023-02-23T13:15:39.671Z,100711.88
2023-02-23T13:18:32.276Z,100710.94
2023-02-23T13:21:11.487Z,100705.97
2023-02-23T13:23:50.762Z,100707.03
2023-02-23T13:26:21.025Z,100706.03
2023-02-23T13:29:14.079Z,100708.78
2023-02-23T13:31:43.679Z,100716.16
2023-02-23T13:34:26.239Z,100709.00
2023-02-23T13:36:54.816Z,100702.78
2023-02-23T13:39:36.087Z,100707.03
2023-02-23T13:42:45.361Z,100713.31
2023-02-23T13:45:24.251Z,100715.34
2023-02-23T13:48:28.830Z,100715.34
2023-02-23T13:51:14.575Z,100705.31
2023-02-23T13:53:47.915Z,100721.72
2023-02-23T13:56:19.130Z,100721.03
2023-02-23T13:58:51.585Z,100722.84
2023-02-23T14:01:27.660Z,100719.09
2023-02-23T14:03:58.141Z,100705.81
2023-02-23T14:06:28.000Z,100711.88
2023-02-23T14:09:24.397Z,100708.34
2023-02-23T14:11:56.650Z,100717.22
2023-02-23T14:14:33.203Z,100710.81
2023-02-23T14:17:15.820Z,100713.41
2023-02-23T14:20:13.302Z,100707.97
2023-02-23T14:23:15.888Z,100715.16
2023-02-23T14:25:52.352Z,100715.34
2023-02-23T14:28:32.753Z,100713.03
2023-02-23T14:31:23.280Z,100710.47
2023-02-23T14:33:57.051Z,100712.22
2023-02-23T14:36:24.423Z,100712.66
2023-02-23T14:38:51.748Z,100707.53
2023-02-23T14:41:30.091Z,100713.88
2023-02-23T14:44:12.329Z,100717.38
2023-02-23T14:47:01.611Z,100704.13
2023-02-23T14:49:35.089Z,100704.00
2023-02-23T14:52:09.023Z,100709.41
2023-02-23T14:54:39.480Z,100715.16
2023-02-23T14:57:18.160Z,100706.25
2023-02-23T14:59:51.672Z,100714.94
2023-02-23T15:02:24.710Z,100704.78
2023-02-23T15:04:52.839Z,100702.13
2023-02-23T15:07:31.186Z,100707.44
2023-02-23T15:10:01.327Z,100702.19
2023-02-23T15:12:35.048Z,100705.16
2023-02-23T15:15:05.055Z,100704.53
2023-02-23T15:17:34.491Z,100709.06
2023-02-23T15:20:17.074Z,100714.44
2023-02-23T15:22:51.900Z,100709.94
2023-02-23T15:25:24.249Z,100702.66
2023-02-23T15:27:52.299Z,100707.19
2023-02-23T15:30:30.632Z,100709.94
2023-02-23T15:33:12.386Z,100693.97
2023-02-23T15:35:45.671Z,100704.81
2023-02-23T15:38:41.733Z,100705.50
2023-02-23T15:41:15.423Z,100704.75
2023-02-23T15:43:43.543Z,100709.16
2023-02-23T15:46:26.682Z,100707.41
2023-02-23T15:48:58.917Z,100699.84
2023-02-23T15:51:56.803Z,100700.84
2023-02-23T15:54:32.484Z,100698.38
2023-02-23T15:57:17.395Z,100705.25
2023-02-23T15:59:47.413Z,100701.97
2023-02-23T16:02:20.447Z,100700.88
2023-02-23T16:04:53.828Z,100697.38
2023-02-23T16:07:27.535Z,100699.59
2023-02-23T16:10:18.948Z,100694.19
2023-02-23T16:12:50.682Z,100689.75
2023-02-23T16:15:24.534Z,100688.09
2023-02-23T16:17:59.473Z,100699.69
2023-02-23T16:20:42.610Z,100690.31
2023-02-23T16:23:33.382Z,100680.50
2023-02-23T16:26:11.726Z,100689.41
2023-02-23T16:28:45.123Z,100682.34
2023-02-23T16:31:20.062Z,100681.59
2023-02-23T16:33:58.760Z,100691.28
2023-02-23T16:36:41.104Z,100684.31
2023-02-23T16:39:12.592Z,100681.69
2023-02-23T16:41:40.059Z,100676.25
2023-02-23T16:44:11.370Z,100675.50
2023-02-23T16:46:55.589Z,100676.44
2023-02-23T16:49:23.640Z,100680.09
2023-02-23T16:51:51.654Z,100675.69
2023-02-23T16:54:19.025Z,100688.13
2023-02-23T16:56:47.949Z,100680.22
2023-02-23T16:59:18.403Z,100685.66
2023-02-23T17:01:46.682Z,100675.88
2023-02-23T17:04:15.729Z,100683.03
2023-02-23T17:06:44.158Z,100690.09
2023-02-23T17:09:15.104Z,100683.81
2023-02-23T17:11:43.957Z,100695.38
2023-02-23T17:14:27.469Z,100699.72
2023-02-23T17:16:54.941Z,100692.75
2023-02-23T17:19:24.687Z,100694.59
2023-02-23T17:21:53.414Z,100692.09
2023-02-23T17:24:25.909Z,100705.50
2023-02-23T17:26:54.292Z,100697.53
2023-02-23T17:29:21.754Z,100699.44
2023-02-23T17:31:49.675Z,100706.50
2023-02-23T17:34:17.667Z,100709.34
2023-02-23T17:36:45.128Z,100711.84
2023-02-23T17:39:14.252Z,100710.28
2023-02-23T17:41:41.743Z,100710.34
2023-02-23T17:44:09.603Z,100720.97
2023-02-23T17:46:37.993Z,100723.81
2023-02-23T17:49:05.456Z,100724.63
2023-02-23T17:51:32.849Z,100713.56
2023-02-23T17:54:00.314Z,100719.97
2023-02-23T17:56:28.292Z,100723.50
2023-02-23T17:58:55.698Z,100728.03
2023-02-23T18:01:23.473Z,100731.56
2023-02-23T18:03:51.096Z,100737.88
2023-02-23T18:06:19.820Z,100742.34
2023-02-23T18:08:47.357Z,100739.19
2023-02-23T18:11:16.512Z,100744.50
2023-02-23T18:13:45.170Z,100749.03
2023-02-23T18:16:13.738Z,100742.06
2023-02-23T18:18:44.802Z,100750.19
2023-02-23T18:21:15.137Z,100745.78
2023-02-23T18:23:43.230Z,100754.75
2023-02-23T18:26:13.864Z,100751.44
2023-02-23T18:28:44.384Z,100749.78
2023-02-23T18:31:17.208Z,100753.50
2023-02-23T18:33:46.229Z,100753.59
2023-02-23T18:36:18.054Z,100759.06
2023-02-23T18:38:45.494Z,100756.81
2023-02-23T18:41:13.023Z,100766.97
2023-02-23T18:43:40.667Z,100768.69
2023-02-23T18:46:09.639Z,100766.84
2023-02-23T18:48:37.868Z,100765.09
2023-02-23T18:51:07.126Z,100781.00
2023-02-23T18:53:37.305Z,100776.03
2023-02-23T18:56:06.078Z,100772.53
2023-02-23T18:58:34.558Z,100777.31
2023-02-23T19:01:02.068Z,100779.09
2023-02-23T19:03:29.468Z,100776.66
2023-02-23T19:05:59.014Z,100773.13
2023-02-23T19:08:26.440Z,100775.84
2023-02-23T19:10:53.985Z,100781.53
2023-02-23T19:13:22.278Z,100781.66
2023-02-23T19:15:50.020Z,100770.84
2023-02-23T19:18:17.471Z,100775.72
2023-02-23T19:20:44.868Z,100766.63
2023-02-23T19:23:13.216Z,100778.16
2023-02-23T19:25:40.603Z,100781.56
2023-02-23T19:28:09.423Z,100774.06
2023-02-23T19:30:38.037Z,100772.31
2023-02-23T19:33:05.816Z,100783.00
2023-02-23T19:35:33.357Z,100786.41
2023-02-23T19:38:02.465Z,100781.94
2023-02-23T19:40:30.933Z,100780.09
2023-02-23T19:42:58.348Z,100773.16
2023-02-23T19:45:26.015Z,100785.09
2023-02-23T19:47:53.829Z,100788.53
2023-02-23T19:50:21.902Z,100787.72
2023-02-23T19:52:49.532Z,100791.13
2023-02-23T19:55:16.932Z,100790.25
2023-02-23T19:57:44.403Z,100776.94
2023-02-23T20:00:13.293Z,100779.53
2023-02-23T20:02:44.584Z,100782.06
2023-02-23T20:05:14.137Z,100770.56
2023-02-23T20:07:42.044Z,100776.75
2023-02-23T20:10:16.440Z,100778.53
2023-02-23T20:12:44.747Z,100778.84
2023-02-23T20:15:14.893Z,100785.50
2023-02-23T20:17:42.485Z,100783.09
2023-02-23T20:20:11.306Z,100776.75
2023-02-23T20:22:41.437Z,100793.34
2023-02-23T20:25:12.589Z,100792.56
2023-02-23T20:27:40.357Z,100803.28
2023-02-23T20:30:08.366Z,100799.16
2023-02-23T20:32:35.866Z,100795.97
2023-02-23T20:35:03.694Z,100798.22
2023-02-23T20:37:31.359Z,100800.88
2023-02-23T20:39:59.659Z,100799.06
2023-02-23T20:42:29.540Z,100791.91
2023-02-23T20:44:57.083Z,100806.84
2023-02-23T20:47:24.738Z,100815.53
2023-02-23T20:49:52.148Z,100815.84
2023-02-23T20:52:19.572Z,100816.41
2023-02-23T20:54:47.474Z,100821.72
2023-02-23T20:57:15.481Z,100814.50
2023-02-23T20:59:44.753Z,100826.88
2023-02-23T21:02:14.074Z,100824.41
2023-02-23T21:04:44.258Z,100808.38
2023-02-23T21:07:13.443Z,100824.19
2023-02-23T21:09:40.941Z,100806.25
2023-02-23T21:12:10.314Z,100816.97
2023-02-23T21:14:37.689Z,100816.31
2023-02-23T21:17:06.511Z,100806.44
2023-02-23T21:19:34.027Z,100809.09
2023-02-23T21:22:01.899Z,100803.75
2023-02-23T21:24:33.773Z,100809.44
2023-02-23T21:27:05.364Z,100808.63
2023-02-23T21:29:32.673Z,100807.75
2023-02-23T21:32:00.110Z,100820.91
2023-02-23T21:34:27.620Z,100814.66
2023-02-23T21:36:55.297Z,100811.13
2023-02-23T21:39:22.979Z,100819.13
2023-02-23T21:41:50.405Z,100819.34
2023-02-23T21:44:17.785Z,100812.44
2023-02-23T21:46:45.179Z,100821.41
2023-02-23T21:49:12.687Z,100820.41
2023-02-23T21:51:40.284Z,100823.94
2023-02-23T21:54:07.887Z,100826.34
2023-02-23T21:56:36.931Z,100818.44
2023-02-23T21:59:06.005Z,100818.28
2023-02-23T22:01:35.527Z,100814.13
2023-02-23T22:04:04.463Z,100809.66
2023-02-23T22:06:43.200Z,100809.06
2023-02-23T22:09:11.639Z,100790.72
2023-02-23T22:11:44.056Z,100805.66
2023-02-23T22:14:11.916Z,100794.91
2023-02-23T22:16:43.272Z,100788.03
2023-02-23T22:19:12.059Z,100788.25
2023-02-23T22:21:42.002Z,100794.66
2023-02-23T22:24:14.068Z,100791.97
2023-02-23T22:26:50.502Z,100798.28
2023-02-23T22:29:18.071Z,100794.72
2023-02-23T22:31:45.580Z,100782.50
2023-02-23T22:34:13.061Z,100795.94
2023-02-23T22:36:40.564Z,100801.25
2023-02-23T22:39:13.136Z,100792.38
2023-02-23T22:41:43.449Z,100791.72
2023-02-23T22:44:13.125Z,100792.47
2023-02-23T22:46:41.791Z,100791.78
2023-02-23T22:49:15.983Z,100788.34
2023-02-23T22:51:43.955Z,100780.13
2023-02-23T22:54:35.717Z,100777.47
2023-02-23T22:57:03.088Z,100772.31
2023-02-23T22:59:30.650Z,100768.75
2023-02-23T23:01:57.994Z,100751.09
2023-02-23T23:04:28.202Z,100764.38
2023-02-23T23:06:55.624Z,100761.72
2023-02-23T23:09:23.059Z,100753.88
2023-02-23T23:11:50.905Z,100737.19
2023-02-23T23:14:19.393Z,100737.28
2023-02-23T23:16:52.589Z,100744.28
2023-02-23T23:19:24.284Z,100745.78
2023-02-23T23:21:55.061Z,100741.22
2023-02-23T23:24:24.720Z,100730.00
2023-02-23T23:26:59.968Z,100747.53
2023-02-23T23:29:32.442Z,100744.09
2023-02-23T23:32:02.371Z,100744.97
2023-02-23T23:34:33.434Z,100738.91
2023-02-23T23:37:02.616Z,100745.09
2023-02-23T23:39:29.903Z,100746.75
2023-02-23T23:41:57.395Z,100743.38
2023-02-23T23:44:29.105Z,100743.56
2023-02-23T23:46:56.903Z,100745.47
2023-02-23T23:49:27.779Z,100738.47
2023-02-23T23:51:56.940Z,100746.44
2023-02-23T23:54:30.876Z,100744.66
2023-02-23T23:57:01.509Z,100740.22
2023-02-23T23:59:29.829Z,100747.38
